Myakka City, Florida
Current Conditions -  °F | °C
As of 8:53 AM on Friday 19 Dec 2014 (Local Time) from KSRQ Reporting Station
Clear Clear  
Wind Chill: 56°   Ceiling: Unl
Heat Index: 56°   Visibility: 10mi
Dew Point: 51°   Wind: 5mph
Humidity: 84%   Direction: 70°ENE
Pressure: 30.12"   Gusts: NA
Location:  27.35°N, 82.16°W
Report Text: KSRQ 191353Z 07004KT 10SM CLR 13/11 A3012 RMK AO2 SLP200 T01330106
Loading
Personal Weather Stations






























Interactive Weather Map New forecast layout! Learn more

10-Day Weather Forecast

Advertisements
Track Severe Weather on mobile